Time;durP1;ratioP1;P1;durP2;ratioP2;P2;SDS_P1;SDS_P2;PMS_P1;PMS_P2;Temp;Humidity;BMP_temperature;BMP_pressure;BME280_temperature;BME280_humidity;BME280_pressure;Samples;Min_cycle;Max_cycle;Signal;HPM_P1;HPM_P2
2024/04/01 00:00:07;;;;;;;21.03;11.93;;;13.90;99.90;;;;;;5097975;28;20313;-73
2024/04/01 00:02:33;;;;;;;27.23;12.33;;;13.90;99.90;;;;;;5097550;28;20290;-73
2024/04/01 00:04:59;;;;;;;22.80;12.23;;;13.90;99.90;;;;;;5092437;28;20227;-73
2024/04/01 00:07:25;;;;;;;29.53;12.30;;;13.80;99.90;;;;;;5089530;28;20219;-72
2024/04/01 00:09:52;;;;;;;25.83;12.20;;;13.80;99.90;;;;;;5068434;28;20685;-72
2024/04/01 00:12:18;;;;;;;24.23;12.03;;;13.80;99.90;;;;;;5068518;28;20302;-72
2024/04/01 00:14:46;;;;;;;21.27;11.57;;;13.80;99.90;;;;;;5068311;28;20326;-74
2024/04/01 00:17:13;;;;;;;28.20;11.80;;;13.80;99.90;;;;;;5068945;28;20264;-74
2024/04/01 00:19:40;;;;;;;22.57;13.47;;;13.80;99.90;;;;;;5088560;28;20650;-75
2024/04/01 00:22:06;;;;;;;24.17;12.17;;;13.80;99.90;;;;;;5088398;28;20692;-73
2024/04/01 00:24:33;;;;;;;24.33;11.63;;;13.80;99.90;;;;;;5088450;28;20284;-74
2024/04/01 00:26:59;;;;;;;25.43;12.47;;;13.80;99.90;;;;;;5088639;28;20336;-73
2024/04/01 00:29:26;;;;;;;25.70;13.03;;;13.70;99.90;;;;;;5087725;28;20331;-73
2024/04/01 00:31:52;;;;;;;24.10;12.40;;;13.70;99.90;;;;;;5086480;28;20287;-73
2024/04/01 00:34:20;;;;;;;22.47;12.40;;;13.70;99.90;;;;;;5081644;28;20210;-73
2024/04/01 00:36:46;;;;;;;23.47;11.77;;;13.70;99.90;;;;;;5087925;28;20293;-73
2024/04/01 00:39:12;;;;;;;23.10;11.83;;;13.70;99.90;;;;;;5088039;28;21041;-73
2024/04/01 00:41:38;;;;;;;25.23;12.90;;;13.70;99.90;;;;;;5087741;28;20209;-73
2024/04/01 00:44:05;;;;;;;26.47;11.87;;;13.60;99.90;;;;;;5087617;28;20240;-73
2024/04/01 00:46:31;;;;;;;20.60;12.83;;;13.60;99.90;;;;;;5087646;28;20759;-73
2024/04/01 00:48:58;;;;;;;26.17;12.90;;;13.60;99.90;;;;;;5082235;28;20200;-73
2024/04/01 00:51:26;;;;;;;22.20;12.27;;;13.50;99.90;;;;;;5067229;28;20214;-73
2024/04/01 00:53:54;;;;;;;24.87;12.03;;;13.50;99.90;;;;;;5070929;28;20206;-73
2024/04/01 00:56:22;;;;;;;28.37;12.93;;;13.50;99.90;;;;;;5088053;28;20294;-73
2024/04/01 00:58:50;;;;;;;32.13;13.30;;;13.50;99.90;;;;;;5087597;28;20486;-73
2024/04/01 01:01:17;;;;;;;17.67;12.00;;;13.40;99.90;;;;;;5084231;28;20226;-73
2024/04/01 01:03:44;;;;;;;25.70;14.13;;;13.40;99.90;;;;;;5079014;28;20607;-73
2024/04/01 01:06:14;;;;;;;22.13;12.60;;;13.40;99.90;;;;;;5087454;28;20280;-73
2024/04/01 01:08:44;;;;;;;21.07;12.30;;;13.40;99.90;;;;;;5087964;28;20203;-73
2024/04/01 01:11:12;;;;;;;24.93;12.80;;;13.30;99.90;;;;;;5087351;28;20765;-73
2024/04/01 01:13:39;;;;;;;22.67;13.40;;;13.30;99.90;;;;;;5080697;28;20284;-73
2024/04/01 01:16:05;;;;;;;25.07;12.57;;;13.30;99.90;;;;;;5067795;28;20294;-73
2024/04/01 01:18:32;;;;;;;27.97;12.83;;;13.30;99.90;;;;;;5083510;28;20195;-73
2024/04/01 01:20:58;;;;;;;26.43;13.23;;;13.30;99.90;;;;;;5086990;28;20205;-73
2024/04/01 01:23:26;;;;;;;24.93;12.73;;;13.30;99.90;;;;;;5086667;28;20309;-74
2024/04/01 01:25:52;;;;;;;29.27;13.60;;;13.30;99.90;;;;;;5087430;28;20289;-74
2024/04/01 01:28:19;;;;;;;27.83;14.30;;;13.20;99.90;;;;;;5087080;28;20387;-74
2024/04/01 01:30:45;;;;;;;37.67;13.93;;;13.30;99.90;;;;;;5084422;28;20230;-73
2024/04/01 01:33:12;;;;;;;25.13;13.97;;;13.30;99.90;;;;;;5074190;28;20207;-74
2024/04/01 01:35:39;;;;;;;25.93;13.00;;;13.20;99.90;;;;;;5074119;28;20286;-73
2024/04/01 01:38:07;;;;;;;38.10;13.63;;;13.30;99.90;;;;;;5076932;28;20640;-73
2024/04/01 01:40:34;;;;;;;32.63;13.93;;;13.20;99.90;;;;;;5066764;28;20229;-73
2024/04/01 01:43:02;;;;;;;22.07;13.30;;;13.20;99.90;;;;;;5066589;28;20937;-74
2024/04/01 01:45:28;;;;;;;29.00;14.20;;;13.20;99.90;;;;;;5066740;28;20280;-74
2024/04/01 01:47:56;;;;;;;26.83;13.60;;;13.20;99.90;;;;;;5079216;28;20207;-74
2024/04/01 01:50:22;;;;;;;24.70;12.97;;;13.20;99.90;;;;;;5087109;28;20548;-74
2024/04/01 01:52:50;;;;;;;20.73;12.70;;;13.20;99.90;;;;;;5086446;28;20207;-75
2024/04/01 01:55:16;;;;;;;25.67;13.70;;;13.20;99.90;;;;;;5073773;28;20235;-74
2024/04/01 01:57:45;;;;;;;25.93;13.80;;;13.20;99.90;;;;;;5080696;28;20211;-74
2024/04/01 02:00:13;;;;;;;29.23;14.40;;;13.10;99.90;;;;;;5086837;28;20268;-73
2024/04/01 02:02:40;;;;;;;29.40;14.07;;;13.10;99.90;;;;;;5075994;28;20676;-73
2024/04/01 02:05:06;;;;;;;30.57;14.10;;;13.10;99.90;;;;;;5074963;28;20341;-73
2024/04/01 02:07:33;;;;;;;28.80;13.73;;;13.10;99.90;;;;;;5086528;28;20210;-74
2024/04/01 02:09:59;;;;;;;26.20;14.43;;;13.10;99.90;;;;;;5079121;28;20207;-73
2024/04/01 02:12:27;;;;;;;28.50;14.00;;;13.10;99.90;;;;;;5066631;28;20199;-73
2024/04/01 02:14:54;;;;;;;25.27;14.23;;;13.10;99.90;;;;;;5066075;28;20239;-73
2024/04/01 02:17:21;;;;;;;27.13;14.53;;;13.00;99.90;;;;;;5068218;28;20195;-73
2024/04/01 02:19:47;;;;;;;24.10;13.20;;;13.00;99.90;;;;;;5066410;28;20326;-73
2024/04/01 02:22:16;;;;;;;29.70;14.73;;;13.00;99.90;;;;;;5066313;28;20208;-73
2024/04/01 02:24:42;;;;;;;29.60;14.20;;;13.00;99.90;;;;;;5067687;28;20234;-73
2024/04/01 02:27:10;;;;;;;25.10;13.77;;;13.00;99.90;;;;;;5070372;28;20230;-73
2024/04/01 02:29:36;;;;;;;23.07;13.70;;;12.90;99.90;;;;;;5081050;28;20226;-73
2024/04/01 02:32:06;;;;;;;32.03;14.57;;;12.90;99.90;;;;;;5082659;28;20200;-73
2024/04/01 02:34:32;;;;;;;30.47;14.23;;;12.90;99.90;;;;;;5086229;28;20786;-73
2024/04/01 02:36:59;;;;;;;29.03;13.73;;;12.90;99.90;;;;;;5085927;28;20211;-74
2024/04/01 02:39:25;;;;;;;26.67;14.33;;;12.90;99.90;;;;;;5088369;28;20705;-75
2024/04/01 02:41:52;;;;;;;26.60;13.43;;;12.90;99.90;;;;;;5087822;28;20217;-75
2024/04/01 02:44:18;;;;;;;30.57;13.30;;;12.90;99.90;;;;;;5090405;28;20230;-75
2024/04/01 02:46:46;;;;;;;21.63;13.60;;;12.90;99.90;;;;;;5088504;28;21000;-75
2024/04/01 02:49:13;;;;;;;22.77;13.20;;;12.80;99.90;;;;;;5088177;28;21016;-74
2024/04/01 02:51:40;;;;;;;31.97;14.07;;;12.80;99.90;;;;;;5099187;28;20272;-74
2024/04/01 02:54:06;;;;;;;29.90;14.87;;;12.80;99.90;;;;;;5096140;28;20745;-75
2024/04/01 02:56:34;;;;;;;31.13;14.97;;;12.80;99.90;;;;;;5103856;28;21049;-75
2024/04/01 02:59:03;;;;;;;26.10;13.27;;;12.80;99.90;;;;;;5104038;28;20297;-74
2024/04/01 03:01:30;;;;;;;27.07;13.27;;;12.80;99.90;;;;;;5104497;28;20213;-73
2024/04/01 03:03:59;;;;;;;26.47;14.03;;;12.70;99.90;;;;;;5073936;28;20305;-73
2024/04/01 03:06:28;;;;;;;30.47;13.67;;;12.70;99.90;;;;;;5089464;28;20205;-73
2024/04/01 03:08:55;;;;;;;26.87;14.27;;;12.70;99.90;;;;;;5089895;28;20317;-73
2024/04/01 03:11:22;;;;;;;28.43;14.07;;;12.60;99.90;;;;;;5090145;28;20209;-73
2024/04/01 03:13:48;;;;;;;30.70;14.63;;;12.60;99.90;;;;;;5089032;28;20305;-74
2024/04/01 03:16:16;;;;;;;29.33;13.90;;;12.70;99.90;;;;;;5089507;28;20282;-74
2024/04/01 03:18:42;;;;;;;28.50;15.53;;;12.70;99.90;;;;;;5089195;28;20217;-74
2024/04/01 03:21:09;;;;;;;23.20;13.70;;;12.60;99.90;;;;;;5097571;28;20241;-73
2024/04/01 03:23:36;;;;;;;26.03;14.30;;;12.60;99.90;;;;;;5092534;28;20205;-73
2024/04/01 03:26:04;;;;;;;30.63;14.87;;;12.60;99.90;;;;;;5099185;28;20198;-75
2024/04/01 03:28:29;;;;;;;25.33;13.43;;;12.60;99.90;;;;;;5100455;28;20289;-75
2024/04/01 03:30:56;;;;;;;30.83;14.20;;;12.60;99.90;;;;;;5097502;28;20226;-75
2024/04/01 03:33:22;;;;;;;22.50;13.27;;;12.50;99.90;;;;;;5087040;28;20290;-75
2024/04/01 03:35:55;;;;;;;29.37;13.80;;;12.60;99.90;;;;;;5089054;28;20297;-75
2024/04/01 03:38:22;;;;;;;31.07;14.40;;;12.50;99.90;;;;;;5089500;28;20195;-75
2024/04/01 03:40:51;;;;;;;24.40;14.13;;;12.50;99.90;;;;;;5089359;28;20301;-75
2024/04/01 03:43:18;;;;;;;25.40;13.20;;;12.50;99.90;;;;;;5089327;28;20748;-75
2024/04/01 03:45:45;;;;;;;23.80;13.93;;;12.50;99.90;;;;;;5089350;28;20322;-75
2024/04/01 03:48:11;;;;;;;27.67;14.07;;;12.50;99.90;;;;;;5082186;28;20195;-76
2024/04/01 03:50:42;;;;;;;22.97;13.10;;;12.50;99.90;;;;;;5096288;28;20213;-76
2024/04/01 03:53:08;;;;;;;33.27;13.73;;;12.50;99.90;;;;;;5100361;28;20209;-75
2024/04/01 03:55:35;;;;;;;23.53;12.90;;;12.40;99.90;;;;;;5100011;28;20704;-75
2024/04/01 03:58:02;;;;;;;26.90;14.30;;;12.30;99.90;;;;;;5099210;28;20222;-75
2024/04/01 04:00:29;;;;;;;22.50;13.17;;;12.30;99.90;;;;;;5094725;28;20577;-75
2024/04/01 04:02:55;;;;;;;24.23;13.00;;;12.30;99.90;;;;;;5093984;28;20230;-75
2024/04/01 04:05:22;;;;;;;29.87;12.63;;;12.30;99.90;;;;;;5096144;28;20783;-75
2024/04/01 04:07:48;;;;;;;21.63;12.80;;;12.30;99.90;;;;;;5099269;28;20206;-75
2024/04/01 04:10:15;;;;;;;23.90;12.57;;;12.30;99.90;;;;;;5103313;27;20200;-75
2024/04/01 04:12:41;;;;;;;28.83;14.10;;;12.40;99.90;;;;;;5087643;28;20289;-75
2024/04/01 04:15:10;;;;;;;31.83;13.53;;;12.30;99.90;;;;;;5093727;28;20313;-75
2024/04/01 04:17:36;;;;;;;20.60;13.10;;;12.30;99.90;;;;;;5094192;28;20198;-75
2024/04/01 04:20:04;;;;;;;23.83;12.93;;;12.20;99.90;;;;;;5077250;28;20330;-74
2024/04/01 04:22:32;;;;;;;19.50;12.73;;;12.20;99.90;;;;;;5088218;28;20256;-73
2024/04/01 04:25:00;;;;;;;27.40;12.87;;;12.20;99.90;;;;;;5088014;28;20238;-73
2024/04/01 04:27:25;;;;;;;22.37;13.77;;;12.30;99.90;;;;;;5088545;28;20286;-73
2024/04/01 04:29:53;;;;;;;21.43;12.47;;;12.20;99.90;;;;;;5088123;28;20752;-73
2024/04/01 04:32:20;;;;;;;23.33;12.73;;;12.10;99.90;;;;;;5083875;28;20252;-73
2024/04/01 04:34:47;;;;;;;24.17;13.17;;;12.20;99.90;;;;;;5067743;28;20287;-73
2024/04/01 04:37:13;;;;;;;24.23;12.70;;;12.20;99.90;;;;;;5067506;28;20306;-73
2024/04/01 04:39:39;;;;;;;18.67;12.20;;;12.30;99.90;;;;;;5067999;28;20322;-73
2024/04/01 04:42:06;;;;;;;26.53;12.30;;;12.20;99.90;;;;;;5067636;28;20241;-73
2024/04/01 04:44:33;;;;;;;26.23;13.20;;;12.20;99.90;;;;;;5067331;28;20230;-73
2024/04/01 04:46:59;;;;;;;24.93;11.77;;;12.30;99.90;;;;;;5075776;28;20205;-73
2024/04/01 04:49:28;;;;;;;21.93;12.80;;;12.30;99.90;;;;;;5087911;28;20207;-74
2024/04/01 04:51:54;;;;;;;25.53;12.50;;;12.30;99.90;;;;;;5087431;28;20242;-73
2024/04/01 04:54:21;;;;;;;25.17;12.97;;;12.30;99.90;;;;;;5087350;28;20295;-73
2024/04/01 04:56:47;;;;;;;22.83;12.13;;;12.30;99.90;;;;;;5078468;28;20295;-73
2024/04/01 04:59:14;;;;;;;24.13;11.93;;;12.30;99.90;;;;;;5078991;28;20202;-73
2024/04/01 05:01:40;;;;;;;25.03;12.73;;;12.30;99.90;;;;;;5083258;28;20247;-73
2024/04/01 05:04:07;;;;;;;17.17;11.50;;;12.20;99.90;;;;;;5086702;28;20315;-73
2024/04/01 05:06:34;;;;;;;28.33;12.83;;;12.30;99.90;;;;;;5087408;28;20238;-73
2024/04/01 05:09:01;;;;;;;19.33;12.43;;;12.30;99.90;;;;;;5085920;28;20207;-74
2024/04/01 05:11:27;;;;;;;26.67;12.20;;;12.30;99.90;;;;;;5086973;28;20297;-74
2024/04/01 05:13:54;;;;;;;23.77;12.77;;;12.30;99.90;;;;;;5086966;28;20284;-73
2024/04/01 05:16:20;;;;;;;24.03;12.40;;;12.30;99.90;;;;;;5086515;28;20249;-73
2024/04/01 05:18:47;;;;;;;24.63;12.67;;;12.30;99.90;;;;;;5067166;28;20239;-73
2024/04/01 05:21:13;;;;;;;21.17;11.10;;;12.30;99.90;;;;;;5067264;28;20950;-73
2024/04/01 05:23:41;;;;;;;28.17;11.77;;;12.30;99.90;;;;;;5067287;28;20207;-74
2024/04/01 05:26:08;;;;;;;24.03;11.87;;;12.40;99.90;;;;;;5067365;28;20250;-73
2024/04/01 05:28:35;;;;;;;24.73;12.53;;;12.40;99.90;;;;;;5067315;28;20212;-74
2024/04/01 05:31:01;;;;;;;27.13;13.20;;;12.50;99.90;;;;;;5067203;28;20349;-74
2024/04/01 05:33:33;;;;;;;23.13;12.00;;;12.50;99.90;;;;;;5067906;28;20298;-74
2024/04/01 05:35:59;;;;;;;23.90;11.30;;;12.50;99.90;;;;;;5067135;28;20207;-74
2024/04/01 05:38:27;;;;;;;25.33;12.57;;;12.60;99.90;;;;;;5067032;28;20218;-74
2024/04/01 05:40:58;;;;;;;24.43;11.80;;;12.60;99.90;;;;;;5066679;28;20653;-74
2024/04/01 05:43:25;;;;;;;27.43;12.20;;;12.60;99.90;;;;;;5068402;28;20204;-74
2024/04/01 05:45:51;;;;;;;26.30;12.17;;;12.70;99.90;;;;;;5066983;28;20239;-74
2024/04/01 05:48:18;;;;;;;28.77;12.20;;;12.60;99.90;;;;;;5076049;28;20198;-74
2024/04/01 05:50:49;;;;;;;25.60;11.43;;;12.70;99.90;;;;;;5087811;28;20261;-74
2024/04/01 05:53:16;;;;;;;34.20;13.10;;;12.60;99.90;;;;;;5087090;28;20202;-73
2024/04/01 05:55:42;;;;;;;30.40;12.50;;;12.70;99.90;;;;;;5082432;28;20297;-74
2024/04/01 05:58:11;;;;;;;25.57;12.33;;;12.70;99.90;;;;;;5086761;28;20321;-74
2024/04/01 06:00:37;;;;;;;33.00;13.37;;;12.70;99.90;;;;;;5087131;28;20301;-74
2024/04/01 06:03:05;;;;;;;31.37;12.40;;;12.70;99.90;;;;;;5082074;28;20203;-74
2024/04/01 06:05:31;;;;;;;34.10;13.33;;;12.70;99.90;;;;;;5086744;28;20279;-74
2024/04/01 06:07:58;;;;;;;28.10;12.83;;;12.80;99.90;;;;;;5066632;28;20203;-74
2024/04/01 06:10:24;;;;;;;31.17;12.07;;;12.80;99.90;;;;;;5069271;28;20684;-74
2024/04/01 06:12:52;;;;;;;27.97;13.10;;;12.80;99.90;;;;;;5086800;28;20238;-74
2024/04/01 06:15:20;;;;;;;33.07;12.73;;;12.90;99.90;;;;;;5089938;28;20253;-75
2024/04/01 06:17:48;;;;;;;37.80;12.57;;;13.00;99.90;;;;;;5086904;28;20201;-75
2024/04/01 06:20:16;;;;;;;31.47;12.07;;;13.00;99.90;;;;;;5070714;28;20214;-74
2024/04/01 06:22:43;;;;;;;26.47;12.20;;;13.00;99.90;;;;;;5070511;28;21020;-75
2024/04/01 06:25:09;;;;;;;35.93;13.07;;;13.10;99.90;;;;;;5070526;28;20571;-75
2024/04/01 06:27:36;;;;;;;34.50;12.60;;;13.20;99.90;;;;;;5070947;28;20654;-74
2024/04/01 06:30:03;;;;;;;37.30;13.17;;;13.20;99.90;;;;;;5072561;28;20321;-74
2024/04/01 06:32:31;;;;;;;36.43;13.17;;;13.20;99.90;;;;;;5090646;28;20207;-73
2024/04/01 06:34:57;;;;;;;31.97;12.73;;;13.20;99.90;;;;;;5089755;28;20764;-73
2024/04/01 06:37:29;;;;;;;35.93;12.87;;;13.20;99.90;;;;;;5088719;28;20305;-73
2024/04/01 06:39:55;;;;;;;42.77;12.97;;;13.30;99.90;;;;;;5076437;28;20618;-74
2024/04/01 06:42:22;;;;;;;30.93;12.50;;;13.30;99.90;;;;;;5081088;28;20282;-74
2024/04/01 06:44:48;;;;;;;39.13;12.57;;;13.30;99.90;;;;;;5070054;28;20274;-74
2024/04/01 06:47:15;;;;;;;38.90;13.30;;;13.30;99.90;;;;;;5070212;28;20311;-73
2024/04/01 06:49:42;;;;;;;37.43;12.80;;;13.30;99.90;;;;;;5094709;28;20206;-74
2024/04/01 06:52:10;;;;;;;34.80;12.43;;;13.40;99.90;;;;;;5092858;28;20703;-74
2024/04/01 06:54:35;;;;;;;50.27;12.83;;;13.40;99.90;;;;;;5098675;28;20209;-74
2024/04/01 06:57:02;;;;;;;38.50;12.40;;;13.40;99.90;;;;;;5095941;28;20200;-74
2024/04/01 06:59:28;;;;;;;49.80;12.27;;;13.50;99.90;;;;;;5069927;28;20209;-74
2024/04/01 07:01:55;;;;;;;43.17;11.90;;;13.50;99.90;;;;;;5087271;28;20587;-74
2024/04/01 07:04:22;;;;;;;41.67;11.43;;;13.60;99.90;;;;;;5089297;28;20202;-73
2024/04/01 07:06:50;;;;;;;34.87;10.67;;;13.70;99.90;;;;;;5084103;28;20303;-74
2024/04/01 07:09:16;;;;;;;36.87;10.20;;;13.70;99.90;;;;;;5069109;28;20239;-73
2024/04/01 07:11:43;;;;;;;39.47;11.27;;;13.80;99.90;;;;;;5070267;28;20239;-75
2024/04/01 07:14:09;;;;;;;47.63;11.83;;;13.90;99.90;;;;;;5069471;28;20319;-75
2024/04/01 07:16:38;;;;;;;42.33;10.63;;;14.00;99.90;;;;;;5069772;28;20624;-75
2024/04/01 07:19:04;;;;;;;39.40;11.00;;;14.00;99.90;;;;;;5069470;28;20246;-75
2024/04/01 07:21:32;;;;;;;44.00;11.23;;;14.10;99.90;;;;;;5069044;28;20239;-75
2024/04/01 07:23:59;;;;;;;45.67;10.93;;;14.20;99.90;;;;;;5069622;28;20204;-75
2024/04/01 07:26:26;;;;;;;42.43;12.07;;;14.20;99.90;;;;;;5068818;28;21039;-75
2024/04/01 07:28:55;;;;;;;35.57;10.47;;;14.30;99.90;;;;;;5069523;28;20306;-75
2024/04/01 07:31:21;;;;;;;47.53;11.23;;;14.30;99.90;;;;;;5082573;28;20242;-76
2024/04/01 07:33:48;;;;;;;39.97;11.67;;;14.30;99.90;;;;;;5087958;28;20282;-75
2024/04/01 07:36:14;;;;;;;40.87;11.20;;;14.30;99.90;;;;;;5070660;28;20212;-74
2024/04/01 07:38:40;;;;;;;43.10;11.03;;;14.30;99.90;;;;;;5086734;28;20672;-75
2024/04/01 07:41:09;;;;;;;38.70;11.40;;;14.30;99.90;;;;;;5076952;28;20257;-74
2024/04/01 07:43:35;;;;;;;35.47;10.67;;;14.30;99.90;;;;;;5069505;28;20204;-75
2024/04/01 07:46:02;;;;;;;43.80;11.40;;;14.30;99.90;;;;;;5073345;28;20251;-75
2024/04/01 07:48:28;;;;;;;34.00;10.13;;;14.30;99.90;;;;;;5084455;28;20203;-75
2024/04/01 07:51:02;;;;;;;32.43;10.97;;;14.30;99.90;;;;;;5089301;28;20198;-75
2024/04/01 07:53:28;;;;;;;42.93;11.20;;;14.40;99.90;;;;;;5097584;28;20202;-75
2024/04/01 07:55:55;;;;;;;33.20;10.37;;;14.40;99.90;;;;;;5099667;28;20194;-76
2024/04/01 07:58:22;;;;;;;37.53;10.60;;;14.40;99.90;;;;;;5100527;28;20194;-76
2024/04/01 08:00:53;;;;;;;39.90;10.57;;;14.40;99.90;;;;;;5092912;28;20213;-76
2024/04/01 08:03:19;;;;;;;35.70;10.73;;;14.40;99.90;;;;;;5087525;28;20238;-75
2024/04/01 08:05:46;;;;;;;36.20;9.63;;;14.50;99.90;;;;;;5087155;28;20266;-73
2024/04/01 08:08:12;;;;;;;35.23;10.97;;;14.50;99.90;;;;;;5088989;28;20317;-74
2024/04/01 08:10:39;;;;;;;33.23;10.20;;;14.60;99.90;;;;;;5082886;28;20320;-74
2024/04/01 08:13:05;;;;;;;34.87;10.80;;;14.60;99.90;;;;;;5084225;28;20206;-74
2024/04/01 08:15:33;;;;;;;41.03;10.53;;;14.60;99.90;;;;;;5088564;28;20321;-73
2024/04/01 08:17:59;;;;;;;36.00;10.40;;;14.70;99.90;;;;;;5088896;28;20286;-73
2024/04/01 08:20:25;;;;;;;37.00;10.87;;;14.70;99.90;;;;;;5084141;28;20637;-73
2024/04/01 08:22:51;;;;;;;41.10;10.40;;;14.70;99.90;;;;;;5088583;28;20290;-72
2024/04/01 08:25:18;;;;;;;33.83;10.23;;;14.70;99.90;;;;;;5069971;28;20246;-72
2024/04/01 08:27:44;;;;;;;39.00;10.63;;;14.80;99.90;;;;;;5068415;28;20295;-72
2024/04/01 08:30:12;;;;;;;36.47;10.87;;;14.80;99.90;;;;;;5071117;28;20318;-74
2024/04/01 08:32:39;;;;;;;39.77;10.03;;;14.90;99.90;;;;;;5079641;28;20230;-73
2024/04/01 08:35:06;;;;;;;42.03;10.30;;;14.90;99.90;;;;;;5077088;28;20203;-73
2024/04/01 08:37:32;;;;;;;38.73;10.00;;;15.00;99.90;;;;;;5087640;28;20209;-73
2024/04/01 08:39:59;;;;;;;33.37;9.07;;;15.10;99.90;;;;;;5088291;28;20657;-74
2024/04/01 08:42:26;;;;;;;36.23;9.87;;;15.10;99.90;;;;;;5080589;28;20282;-73
2024/04/01 08:44:56;;;;;;;41.87;11.23;;;15.20;99.90;;;;;;5084580;28;20333;-73
2024/04/01 08:47:27;;;;;;;39.90;10.17;;;15.20;99.90;;;;;;5088581;28;20276;-74
2024/04/01 08:50:04;;;;;;;29.93;9.80;;;15.30;99.90;;;;;;5083369;28;20244;-74
2024/04/01 08:52:47;;;;;;;38.23;10.87;;;15.30;99.90;;;;;;5087696;28;20649;-73
2024/04/01 08:55:14;;;;;;;31.17;8.67;;;15.40;99.90;;;;;;5087527;28;20625;-74
2024/04/01 08:57:40;;;;;;;34.17;10.17;;;15.40;99.90;;;;;;5087938;28;20234;-72
2024/04/01 09:00:09;;;;;;;31.70;9.10;;;15.40;99.90;;;;;;5081628;28;20633;-73
2024/04/01 09:02:35;;;;;;;32.20;9.20;;;15.50;99.90;;;;;;5087551;28;20293;-73
2024/04/01 09:05:04;;;;;;;32.17;8.63;;;15.50;99.90;;;;;;5081017;28;20219;-73
2024/04/01 09:07:30;;;;;;;39.23;9.70;;;15.60;99.90;;;;;;5088450;28;20207;-74
2024/04/01 09:09:57;;;;;;;31.53;8.43;;;15.60;99.90;;;;;;5067121;28;20665;-74
2024/04/01 09:12:23;;;;;;;29.30;8.27;;;15.60;99.90;;;;;;5067228;28;20298;-74
2024/04/01 09:14:50;;;;;;;28.43;8.00;;;15.70;99.90;;;;;;5068896;28;20238;-73
2024/04/01 09:17:24;;;;;;;38.70;8.57;;;15.70;99.90;;;;;;5065648;28;20203;-73
2024/04/01 09:19:51;;;;;;;28.87;8.17;;;15.80;99.90;;;;;;5068680;28;20673;-74
2024/04/01 09:22:18;;;;;;;27.53;7.93;;;15.90;99.90;;;;;;5085282;28;20766;-74
2024/04/01 09:24:45;;;;;;;32.07;8.20;;;16.00;99.90;;;;;;5084548;28;20213;-74
2024/04/01 09:27:11;;;;;;;34.30;7.20;;;16.20;99.90;;;;;;5085363;28;20805;-74
2024/04/01 09:29:38;;;;;;;27.97;7.50;;;16.30;99.90;;;;;;5084904;28;20227;-74
2024/04/01 09:32:05;;;;;;;25.20;7.97;;;16.40;99.90;;;;;;5085264;28;20317;-74
2024/04/01 09:34:31;;;;;;;28.20;7.03;;;16.50;99.90;;;;;;5084187;28;20207;-74
2024/04/01 09:36:58;;;;;;;22.13;6.50;;;16.50;99.90;;;;;;5066529;28;20281;-74
2024/04/01 09:39:26;;;;;;;23.83;6.63;;;16.50;99.90;;;;;;5064362;28;20667;-74
2024/04/01 09:41:53;;;;;;;20.27;6.47;;;16.50;99.90;;;;;;5065156;28;20215;-74
2024/04/01 09:44:21;;;;;;;25.33;6.43;;;16.50;99.90;;;;;;5064840;28;20207;-74
2024/04/01 09:46:47;;;;;;;21.30;6.30;;;16.60;99.90;;;;;;5065304;28;20701;-74
2024/04/01 09:49:16;;;;;;;20.60;6.20;;;16.60;99.90;;;;;;5075423;28;20213;-74
2024/04/01 09:51:43;;;;;;;20.60;6.00;;;16.60;99.90;;;;;;5073610;28;20208;-74
2024/04/01 09:54:10;;;;;;;20.27;6.37;;;16.60;99.90;;;;;;5065546;28;20366;-74
2024/04/01 09:57:21;;;;;;;21.70;5.87;;;16.70;99.90;;;;;;5080865;28;20293;-74
2024/04/01 10:00:16;;;;;;;19.40;5.97;;;16.70;99.90;;;;;;5083773;28;20205;-74
2024/04/01 10:03:35;;;;;;;19.60;6.10;;;16.80;99.90;;;;;;5065203;28;20215;-74
2024/04/01 10:06:52;;;;;;;20.00;5.93;;;16.80;99.90;;;;;;5032041;28;20266;-74
2024/04/01 10:10:06;;;;;;;26.20;6.33;;;16.80;99.90;;;;;;5086328;28;20629;-74
2024/04/01 10:13:03;;;;;;;26.20;6.50;;;16.90;99.90;;;;;;5082908;28;20247;-74
2024/04/01 10:16:16;;;;;;;20.80;6.77;;;16.90;99.90;;;;;;5089829;28;21037;-74
2024/04/01 10:19:20;;;;;;;24.17;7.70;;;16.90;99.90;;;;;;5072704;28;20198;-73
2024/04/01 10:22:23;;;;;;;23.13;5.67;;;16.90;99.90;;;;;;5085415;28;20206;-74
2024/04/01 10:25:30;;;;;;;23.57;5.90;;;17.00;99.90;;;;;;5060194;28;20209;-74
2024/04/01 10:28:34;;;;;;;19.87;5.13;;;17.20;99.90;;;;;;5076347;28;20199;-74
2024/04/01 10:31:30;;;;;;;21.60;5.43;;;17.30;99.90;;;;;;5074076;28;20218;-74
2024/04/01 10:34:33;;;;;;;21.47;5.80;;;17.50;99.90;;;;;;5086036;28;20306;-74
2024/04/01 10:37:26;;;;;;;20.80;5.07;;;17.80;99.90;;;;;;5081446;28;20203;-74
2024/04/01 10:40:03;;;;;;;19.00;6.50;;;17.80;99.90;;;;;;5090297;28;20229;-74
2024/04/01 10:42:58;;;;;;;16.73;5.37;;;17.90;99.90;;;;;;5097501;28;20194;-74
2024/04/01 10:46:21;;;;;;;18.90;5.37;;;18.00;99.90;;;;;;5099276;28;20210;-74
2024/04/01 10:49:10;;;;;;;27.13;6.00;;;17.90;99.90;;;;;;5092827;28;20187;-74
2024/04/01 10:52:05;;;;;;;21.50;5.07;;;17.90;99.90;;;;;;5092359;28;20290;-74
2024/04/01 10:54:44;;;;;;;13.40;4.47;;;17.80;99.90;;;;;;5091836;28;20194;-74
2024/04/01 10:57:43;;;;;;;17.70;5.00;;;17.70;99.90;;;;;;5095582;28;20197;-74
2024/04/01 11:00:25;;;;;;;14.97;4.60;;;17.60;99.90;;;;;;5088118;28;20329;-74
2024/04/01 11:03:29;;;;;;;16.57;5.03;;;17.60;99.90;;;;;;5098462;28;20191;-74
2024/04/01 11:06:16;;;;;;;21.83;4.60;;;17.60;99.90;;;;;;5092857;28;20223;-74
2024/04/01 11:09:02;;;;;;;14.67;4.10;;;17.60;99.90;;;;;;5082957;28;20614;-74
2024/04/01 11:11:39;;;;;;;13.50;4.40;;;17.50;99.90;;;;;;5074213;28;20274;-74
2024/04/01 11:14:09;;;;;;;16.20;4.20;;;17.50;99.90;;;;;;5088367;28;20555;-74
2024/04/01 11:16:37;;;;;;;13.93;4.83;;;17.50;99.90;;;;;;5079552;28;20200;-74
2024/04/01 11:19:23;;;;;;;14.90;4.20;;;17.50;99.90;;;;;;5087317;28;20320;-74
2024/04/01 11:21:52;;;;;;;15.60;4.30;;;17.60;99.90;;;;;;5068072;28;20294;-74
2024/04/01 11:24:33;;;;;;;12.70;3.77;;;17.60;99.90;;;;;;5068187;28;20218;-74
2024/04/01 11:27:21;;;;;;;10.57;3.73;;;17.70;99.90;;;;;;5068208;28;20234;-74
2024/04/01 11:30:15;;;;;;;15.67;3.73;;;17.80;99.90;;;;;;5067484;28;20224;-74
2024/04/01 11:32:45;;;;;;;11.80;3.03;;;17.90;99.90;;;;;;5084100;28;20205;-74
2024/04/01 11:35:27;;;;;;;18.63;4.00;;;17.90;99.90;;;;;;5082712;28;20206;-74
2024/04/01 11:38:03;;;;;;;15.37;3.70;;;18.00;99.90;;;;;;5086828;28;20668;-74
2024/04/01 11:40:34;;;;;;;10.47;3.57;;;18.10;99.90;;;;;;5091522;28;20858;-74
2024/04/01 11:43:04;;;;;;;13.20;3.73;;;18.20;99.90;;;;;;5091766;28;20293;-74
2024/04/01 11:45:35;;;;;;;19.43;3.87;;;18.20;99.90;;;;;;5088272;28;20600;-74
2024/04/01 11:48:01;;;;;;;15.17;3.80;;;18.20;99.90;;;;;;5090892;28;20211;-74
2024/04/01 11:50:28;;;;;;;15.87;3.73;;;18.00;99.90;;;;;;5088688;28;20206;-74
2024/04/01 11:52:59;;;;;;;10.30;3.47;;;18.00;99.90;;;;;;5100916;28;20212;-74
2024/04/01 11:55:27;;;;;;;16.23;3.53;;;18.00;99.90;;;;;;5090620;28;20203;-74
2024/04/01 11:57:53;;;;;;;10.13;3.83;;;18.20;99.90;;;;;;5098252;28;20276;-74
2024/04/01 12:00:21;;;;;;;14.43;3.43;;;18.20;99.90;;;;;;5092560;28;20736;-74
2024/04/01 12:02:54;;;;;;;16.40;4.43;;;18.10;99.90;;;;;;5100667;28;20285;-74
2024/04/01 12:05:21;;;;;;;13.63;3.77;;;18.10;99.90;;;;;;5090648;28;20658;-74
2024/04/01 12:07:49;;;;;;;14.63;3.90;;;18.10;99.90;;;;;;5081776;28;20616;-73
2024/04/01 12:10:19;;;;;;;15.77;3.73;;;18.00;99.90;;;;;;5071904;28;20196;-74
2024/04/01 12:12:46;;;;;;;15.60;4.00;;;18.00;99.90;;;;;;5082726;28;20235;-74
2024/04/01 12:15:16;;;;;;;10.90;4.07;;;18.00;99.90;;;;;;5081603;28;20284;-74
2024/04/01 12:17:42;;;;;;;15.13;3.90;;;18.20;99.90;;;;;;5081178;28;20656;-74
2024/04/01 12:20:10;;;;;;;12.83;4.03;;;18.30;99.90;;;;;;5077179;28;20203;-74
2024/04/01 12:22:37;;;;;;;10.53;3.57;;;18.50;99.90;;;;;;5078831;28;20662;-74
2024/04/01 12:25:06;;;;;;;13.80;3.27;;;18.50;99.90;;;;;;5075150;28;20608;-74
2024/04/01 12:27:33;;;;;;;14.97;3.63;;;18.60;99.90;;;;;;5081368;28;20577;-74
2024/04/01 12:30:01;;;;;;;12.90;3.30;;;18.70;99.90;;;;;;5077050;28;20277;-74
2024/04/01 12:32:27;;;;;;;11.40;3.53;;;18.90;99.90;;;;;;5079816;28;20304;-74
2024/04/01 12:34:56;;;;;;;11.67;3.40;;;19.00;99.90;;;;;;5078687;28;20286;-74
2024/04/01 12:37:23;;;;;;;14.70;2.90;;;19.10;99.90;;;;;;5073207;28;20294;-74
2024/04/01 12:39:53;;;;;;;10.63;3.03;;;19.30;99.90;;;;;;5078073;28;20208;-74
2024/04/01 12:42:20;;;;;;;11.13;3.13;;;19.40;99.90;;;;;;5071063;28;20952;-74
2024/04/01 12:44:50;;;;;;;14.67;3.13;;;19.40;99.90;;;;;;5077448;28;20238;-74